Terminal Aerodrome Forecast
Issued by NWS

Home | Current Version | Previous Version | Text Only | Print | Product List | Glossary On
Versions: 1 2 3 4 5 6 7 8 9 10 11 12 13 14 15 16 17 18 19 20 21 22
792
FTUS44 KBMX 240520
TAFANB
TAF
KANB 240520Z 2406/2506 VRB02KT P6SM FEW250
      TEMPO 2409/2413 4SM BR
     FM241700 13005KT P6SM SCT040 PROB30 2419/2501 P6SM TSRA
      SCT040CB
     FM250100 10002KT P6SM SCT250=

USA.gov is the U.S. government's official web portal to all federal, state and local government web resources and services.